createdAt,value
2022-11-22T00:00:48.309Z,5.50
2022-11-22T00:02:09.317Z,5.50
2022-11-22T00:02:48.278Z,5.40
2022-11-22T00:03:48.997Z,5.40
2022-11-22T00:04:51.007Z,5.50
2022-11-22T00:05:48.204Z,4.90
2022-11-22T00:06:48.200Z,5.10
2022-11-22T00:07:48.215Z,4.60
2022-11-22T00:08:48.190Z,4.90
2022-11-22T00:09:50.993Z,5.00
2022-11-22T00:10:48.190Z,4.60
2022-11-22T00:11:48.129Z,4.10
2022-11-22T00:12:48.167Z,4.40
2022-11-22T00:13:48.128Z,4.50
2022-11-22T00:14:53.891Z,4.60
2022-11-22T00:15:49.135Z,4.30
2022-11-22T00:16:49.124Z,4.50
2022-11-22T00:17:48.094Z,4.40
2022-11-22T00:18:48.092Z,4.30
2022-11-22T00:19:48.043Z,4.50
2022-11-22T00:20:48.084Z,4.70
2022-11-22T00:21:48.524Z,4.00
2022-11-22T00:22:48.027Z,4.30
2022-11-22T00:23:48.005Z,4.50
2022-11-22T00:24:50.504Z,5.00
2022-11-22T00:25:47.990Z,3.90
2022-11-22T00:26:50.507Z,4.10
2022-11-22T00:27:47.984Z,4.10
2022-11-22T00:28:47.963Z,4.40
2022-11-22T00:29:50.492Z,4.70
2022-11-22T00:30:47.951Z,4.20
2022-11-22T00:31:54.498Z,4.10
2022-11-22T00:32:48.071Z,4.10
2022-11-22T00:33:47.955Z,4.30
2022-11-22T00:34:48.492Z,4.30
2022-11-22T00:35:47.880Z,4.50
2022-11-22T00:36:47.865Z,4.30
2022-11-22T00:37:47.876Z,4.20
2022-11-22T00:38:50.505Z,4.30
2022-11-22T00:39:54.495Z,4.90
2022-11-22T00:40:48.491Z,4.40
2022-11-22T00:41:47.814Z,3.90
2022-11-22T00:42:48.030Z,3.90
2022-11-22T00:43:55.493Z,3.90
2022-11-22T00:44:47.804Z,4.40
2022-11-22T00:45:47.756Z,4.10
2022-11-22T00:46:47.775Z,4.10
2022-11-22T00:47:47.739Z,4.20
2022-11-22T00:48:47.740Z,4.60
2022-11-22T00:49:48.031Z,3.80
2022-11-22T00:50:47.714Z,4.40
2022-11-22T00:51:47.691Z,4.50
2022-11-22T00:52:48.497Z,3.70
2022-11-22T00:53:47.666Z,4.00
2022-11-22T00:54:54.485Z,3.80
2022-11-22T00:55:51.486Z,4.20
2022-11-22T00:56:54.507Z,4.00
2022-11-22T00:57:47.631Z,3.70
2022-11-22T00:58:48.682Z,3.70
2022-11-22T00:59:47.608Z,4.10
2022-11-22T01:00:49.999Z,3.70
2022-11-22T01:01:51.498Z,4.10
2022-11-22T01:02:47.581Z,3.90
2022-11-22T01:03:48.496Z,3.60
2022-11-22T01:04:47.560Z,3.90
2022-11-22T01:05:47.579Z,3.90
2022-11-22T01:06:47.538Z,4.00
2022-11-22T01:07:47.738Z,3.60
2022-11-22T01:08:47.520Z,4.10
2022-11-22T01:09:47.487Z,3.60
2022-11-22T01:10:47.492Z,3.80
2022-11-22T01:11:49.999Z,3.60
2022-11-22T01:12:47.464Z,3.20
2022-11-22T01:13:47.551Z,3.60
2022-11-22T01:14:48.005Z,3.60
2022-11-22T01:15:47.435Z,3.70
2022-11-22T01:16:47.449Z,2.70
2022-11-22T01:17:47.989Z,3.30
2022-11-22T01:18:47.410Z,2.90
2022-11-22T01:19:47.388Z,3.50
2022-11-22T01:20:47.386Z,2.90
2022-11-22T01:21:47.403Z,3.10
2022-11-22T01:22:47.391Z,3.10
2022-11-22T01:23:47.363Z,2.90
2022-11-22T01:24:47.345Z,2.90
2022-11-22T01:25:47.320Z,3.20
2022-11-22T01:26:47.315Z,3.00
2022-11-22T01:27:47.299Z,3.10
2022-11-22T01:28:47.314Z,2.90
2022-11-22T01:29:47.283Z,2.80
2022-11-22T01:30:47.276Z,3.10
2022-11-22T01:31:47.247Z,2.60
2022-11-22T01:32:47.283Z,3.10
2022-11-22T01:33:47.993Z,3.00
2022-11-22T01:34:50.013Z,2.90
2022-11-22T01:35:47.211Z,2.90
2022-11-22T01:36:47.206Z,2.80
2022-11-22T01:37:50.011Z,3.20
2022-11-22T01:38:47.207Z,2.80
2022-11-22T01:39:47.204Z,2.70
2022-11-22T01:40:48.007Z,3.10
2022-11-22T01:41:47.152Z,3.00
2022-11-22T01:43:08.138Z,3.30
2022-11-22T01:43:47.151Z,3.30
2022-11-22T01:44:48.003Z,3.30
2022-11-22T01:45:47.121Z,3.50
2022-11-22T01:46:47.114Z,3.20
2022-11-22T01:47:47.083Z,3.40
2022-11-22T01:48:47.079Z,3.30
2022-11-22T01:49:47.082Z,3.00
2022-11-22T01:50:47.999Z,3.20
2022-11-22T01:51:47.045Z,3.20
2022-11-22T01:52:47.039Z,3.60
2022-11-22T01:53:47.106Z,3.20
2022-11-22T01:54:47.013Z,3.10
2022-11-22T01:55:47.035Z,3.00
2022-11-22T01:56:47.025Z,3.00
2022-11-22T01:57:47.507Z,2.00
2022-11-22T01:58:47.974Z,1.80
2022-11-22T01:59:47.491Z,1.40
2022-11-22T02:00:47.544Z,1.60
2022-11-22T02:01:46.951Z,1.30
2022-11-22T02:02:46.945Z,1.80
2022-11-22T02:03:47.500Z,1.30
2022-11-22T02:04:46.910Z,1.60
2022-11-22T02:05:46.890Z,1.30
2022-11-22T02:06:46.912Z,1.50
2022-11-22T02:07:46.935Z,1.50
2022-11-22T02:08:47.515Z,1.70
2022-11-22T02:09:47.508Z,1.30
2022-11-22T02:10:46.852Z,1.40
2022-11-22T02:11:49.507Z,1.80
2022-11-22T02:12:47.040Z,1.90
2022-11-22T02:13:46.806Z,2.10
2022-11-22T02:14:46.802Z,1.50
2022-11-22T02:15:47.493Z,1.60
2022-11-22T02:16:46.781Z,1.60
2022-11-22T02:17:46.776Z,1.50
2022-11-22T02:18:46.750Z,1.50
2022-11-22T02:19:47.502Z,1.70
2022-11-22T02:20:46.714Z,2.10
2022-11-22T02:21:46.720Z,1.40
2022-11-22T02:22:47.993Z,1.50
2022-11-22T02:23:47.752Z,1.30
2022-11-22T02:24:46.706Z,1.60
2022-11-22T02:25:46.685Z,1.60
2022-11-22T02:26:46.652Z,1.70
2022-11-22T02:27:47.030Z,1.50
2022-11-22T02:28:46.657Z,1.50
2022-11-22T02:29:47.619Z,1.70
2022-11-22T02:30:46.612Z,1.70
2022-11-22T02:31:46.597Z,1.60
2022-11-22T02:32:46.597Z,1.60
2022-11-22T02:33:46.591Z,1.80
2022-11-22T02:34:46.595Z,1.80
2022-11-22T02:35:46.559Z,1.50
2022-11-22T02:36:46.548Z,1.90
2022-11-22T02:37:46.541Z,1.90
2022-11-22T02:38:47.491Z,1.90
2022-11-22T02:39:46.525Z,1.90
2022-11-22T02:40:46.525Z,1.40
2022-11-22T02:41:47.017Z,1.60
2022-11-22T02:42:46.489Z,1.80
2022-11-22T02:43:46.517Z,1.70
2022-11-22T02:44:46.470Z,1.80
2022-11-22T02:45:46.470Z,1.90
2022-11-22T02:46:49.008Z,1.80
2022-11-22T02:47:46.991Z,1.60
2022-11-22T02:48:46.436Z,1.80
2022-11-22T02:49:46.445Z,2.00
2022-11-22T02:50:46.395Z,2.20
2022-11-22T02:51:46.385Z,2.20
2022-11-22T02:52:46.387Z,1.80
2022-11-22T02:53:46.364Z,1.90
2022-11-22T02:54:46.360Z,2.10
2022-11-22T02:55:46.356Z,2.60
2022-11-22T02:56:46.342Z,1.90
2022-11-22T02:57:46.335Z,2.20
2022-11-22T02:58:47.006Z,2.00
2022-11-22T02:59:46.305Z,2.10
2022-11-22T03:00:46.343Z,2.40
2022-11-22T03:01:46.298Z,2.20
2022-11-22T03:02:46.273Z,1.90
2022-11-22T03:03:46.249Z,2.20
2022-11-22T03:04:46.271Z,2.00
2022-11-22T03:05:46.255Z,2.30
2022-11-22T03:06:46.231Z,2.00
2022-11-22T03:07:46.297Z,2.30
2022-11-22T03:08:46.207Z,2.00
2022-11-22T03:09:46.197Z,2.30
2022-11-22T03:10:46.188Z,2.30
2022-11-22T03:11:46.992Z,2.30
2022-11-22T03:12:46.205Z,2.50
2022-11-22T03:13:46.162Z,1.90
2022-11-22T03:14:47.007Z,2.20
2022-11-22T03:15:46.138Z,2.20
2022-11-22T03:16:46.116Z,2.70
2022-11-22T03:17:46.109Z,2.50
2022-11-22T03:18:46.107Z,1.80
2022-11-22T03:19:46.090Z,2.10
2022-11-22T03:20:46.075Z,2.20
2022-11-22T03:21:46.060Z,2.50
2022-11-22T03:22:46.046Z,2.00
2022-11-22T03:23:46.091Z,2.20
2022-11-22T03:24:46.024Z,2.20
2022-11-22T03:25:46.037Z,2.30
2022-11-22T03:26:46.999Z,1.70
2022-11-22T03:27:45.996Z,2.10
2022-11-22T03:28:45.987Z,2.00
2022-11-22T03:29:46.013Z,2.00
2022-11-22T03:30:48.498Z,2.30
2022-11-22T03:31:45.954Z,2.20
2022-11-22T03:32:45.942Z,2.10
2022-11-22T03:33:45.935Z,2.10
2022-11-22T03:34:45.938Z,2.00
2022-11-22T03:35:45.918Z,2.40
2022-11-22T03:36:45.895Z,2.20
2022-11-22T03:37:45.889Z,2.40
2022-11-22T03:38:48.494Z,1.80
2022-11-22T03:39:45.889Z,2.10
2022-11-22T03:40:45.864Z,2.40
2022-11-22T03:41:45.837Z,2.20
2022-11-22T03:42:45.841Z,2.10
2022-11-22T03:43:45.809Z,2.10
2022-11-22T03:44:45.819Z,2.00
2022-11-22T03:45:45.829Z,2.00
2022-11-22T03:46:45.786Z,1.80
2022-11-22T03:47:45.778Z,2.50
2022-11-22T03:48:45.781Z,2.30
2022-11-22T03:49:45.754Z,2.10
2022-11-22T03:50:45.768Z,2.20
2022-11-22T03:51:45.769Z,2.20
2022-11-22T03:52:45.730Z,2.00
2022-11-22T03:53:45.707Z,2.20
2022-11-22T03:54:45.707Z,2.10
2022-11-22T03:55:45.727Z,2.30
2022-11-22T03:56:45.688Z,2.30
2022-11-22T03:57:46.499Z,2.00
2022-11-22T03:58:45.667Z,2.20
2022-11-22T03:59:45.639Z,2.20
2022-11-22T04:00:45.640Z,2.30
2022-11-22T04:01:45.695Z,2.00
2022-11-22T04:02:45.611Z,2.00
2022-11-22T04:03:45.591Z,1.90
2022-11-22T04:04:45.605Z,2.10
2022-11-22T04:05:45.581Z,2.00
2022-11-22T04:06:45.567Z,2.30
2022-11-22T04:07:45.688Z,2.40
2022-11-22T04:08:45.621Z,2.40
2022-11-22T04:09:45.532Z,2.10
2022-11-22T04:10:48.495Z,2.30
2022-11-22T04:11:46.523Z,1.90
2022-11-22T04:12:45.496Z,3.00
2022-11-22T04:13:45.515Z,2.80
2022-11-22T04:14:45.470Z,2.50
2022-11-22T04:15:46.537Z,2.40
2022-11-22T04:16:45.996Z,2.00
2022-11-22T04:17:45.568Z,2.10
2022-11-22T04:18:45.452Z,2.40
2022-11-22T04:19:52.002Z,2.70
2022-11-22T04:20:45.422Z,2.30
2022-11-22T04:21:45.411Z,2.30
2022-11-22T04:22:45.406Z,2.60
2022-11-22T04:23:46.409Z,2.20
2022-11-22T04:24:45.413Z,2.30
2022-11-22T04:25:45.352Z,2.10
2022-11-22T04:26:45.345Z,2.50
2022-11-22T04:27:45.337Z,2.50
2022-11-22T04:29:08.635Z,2.30
2022-11-22T04:29:46.323Z,2.20
2022-11-22T04:30:45.291Z,2.10
2022-11-22T04:31:45.283Z,2.30
2022-11-22T04:32:45.285Z,2.00
2022-11-22T04:33:45.272Z,2.40
2022-11-22T04:34:45.268Z,1.80
2022-11-22T04:35:45.240Z,2.40
2022-11-22T04:36:45.997Z,2.20
2022-11-22T04:37:45.216Z,2.10
2022-11-22T04:38:45.212Z,2.50
2022-11-22T04:39:45.207Z,2.50
2022-11-22T04:40:47.568Z,2.00
2022-11-22T04:41:45.175Z,2.50
2022-11-22T04:42:45.281Z,2.20
2022-11-22T04:43:45.997Z,2.50
2022-11-22T04:44:45.530Z,2.20
2022-11-22T04:45:45.150Z,2.20
2022-11-22T04:46:46.176Z,2.20
2022-11-22T04:47:50.135Z,2.00
2022-11-22T04:48:46.111Z,2.50
2022-11-22T04:49:48.014Z,2.10
2022-11-22T04:50:45.081Z,2.30
2022-11-22T04:51:45.102Z,2.30
2022-11-22T04:52:45.064Z,2.40
2022-11-22T04:53:45.037Z,2.00
2022-11-22T04:54:46.003Z,2.20
2022-11-22T04:55:45.009Z,2.50
2022-11-22T04:56:45.079Z,3.00
2022-11-22T04:57:44.988Z,2.50
2022-11-22T04:58:44.992Z,2.10
2022-11-22T04:59:44.975Z,2.40
2022-11-22T05:00:47.540Z,2.50
2022-11-22T05:01:44.962Z,2.00
2022-11-22T05:02:44.964Z,2.30
2022-11-22T05:03:44.923Z,2.10
2022-11-22T05:04:50.501Z,2.40
2022-11-22T05:05:44.915Z,2.40
2022-11-22T05:06:44.943Z,2.40
2022-11-22T05:07:44.941Z,2.50
2022-11-22T05:08:44.878Z,2.40
2022-11-22T05:09:44.852Z,2.10
2022-11-22T05:10:48.549Z,2.40
2022-11-22T05:11:44.824Z,2.10
2022-11-22T05:12:44.869Z,2.50
2022-11-22T05:13:44.815Z,2.10
2022-11-22T05:14:44.808Z,2.30
2022-11-22T05:15:44.793Z,2.80
2022-11-22T05:16:44.821Z,1.80
2022-11-22T05:17:44.790Z,2.20
2022-11-22T05:18:44.762Z,2.30
2022-11-22T05:19:49.015Z,2.30
2022-11-22T05:20:44.731Z,2.10
2022-11-22T05:21:45.785Z,2.90
2022-11-22T05:22:44.712Z,2.30
2022-11-22T05:23:44.767Z,2.70
2022-11-22T05:24:44.685Z,2.20
2022-11-22T05:25:44.676Z,2.60
2022-11-22T05:26:44.665Z,3.30
2022-11-22T05:27:44.656Z,2.30
2022-11-22T05:28:45.077Z,2.40
2022-11-22T05:29:44.636Z,2.60
2022-11-22T05:30:44.616Z,2.70
2022-11-22T05:31:49.815Z,2.40
2022-11-22T05:32:45.609Z,2.70
2022-11-22T05:33:44.591Z,2.20
2022-11-22T05:34:44.604Z,2.90
2022-11-22T05:35:44.570Z,2.60
2022-11-22T05:36:44.556Z,2.40
2022-11-22T05:38:08.512Z,2.90
2022-11-22T05:38:44.539Z,2.40
2022-11-22T05:39:44.522Z,2.70
2022-11-22T05:40:44.527Z,2.50
2022-11-22T05:41:44.503Z,2.60
2022-11-22T05:42:48.040Z,2.80
2022-11-22T05:43:44.481Z,3.10
2022-11-22T05:44:47.007Z,3.20
2022-11-22T05:45:44.523Z,2.40
2022-11-22T05:46:45.002Z,2.60
2022-11-22T05:47:44.452Z,2.60
2022-11-22T05:48:44.431Z,2.80
2022-11-22T05:49:44.407Z,2.80
2022-11-22T05:50:44.434Z,2.30
2022-11-22T05:51:44.396Z,2.60
2022-11-22T05:52:47.004Z,2.60
2022-11-22T05:53:44.388Z,2.50
2022-11-22T05:54:44.372Z,2.50
2022-11-22T05:55:44.346Z,2.50
2022-11-22T05:56:44.353Z,2.50
2022-11-22T05:57:44.328Z,2.50
2022-11-22T05:58:44.319Z,2.90
2022-11-22T05:59:44.592Z,2.50
2022-11-22T06:00:45.343Z,2.30
2022-11-22T06:01:44.321Z,3.50
2022-11-22T06:02:44.267Z,2.50
2022-11-22T06:03:44.266Z,2.50
2022-11-22T06:04:45.000Z,3.40
2022-11-22T06:05:44.240Z,2.70
2022-11-22T06:06:44.247Z,2.80
2022-11-22T06:07:47.654Z,2.70
2022-11-22T06:08:44.234Z,2.50
2022-11-22T06:09:44.218Z,2.80
2022-11-22T06:10:44.213Z,2.50
2022-11-22T06:11:47.002Z,2.70
2022-11-22T06:12:44.197Z,2.50
2022-11-22T06:13:44.151Z,3.70
2022-11-22T06:14:44.144Z,3.20
2022-11-22T06:15:44.130Z,3.10
2022-11-22T06:16:44.133Z,2.60
2022-11-22T06:17:44.134Z,3.10
2022-11-22T06:18:44.137Z,2.60
2022-11-22T06:19:44.089Z,2.70
2022-11-22T06:20:44.081Z,3.50
2022-11-22T06:21:44.540Z,2.90
2022-11-22T06:22:45.002Z,2.70
2022-11-22T06:23:45.065Z,2.50
2022-11-22T06:24:44.031Z,3.20
2022-11-22T06:25:44.043Z,2.50
2022-11-22T06:26:45.004Z,2.70
2022-11-22T06:27:44.027Z,2.50
2022-11-22T06:28:44.499Z,2.60
2022-11-22T06:29:43.971Z,2.50
2022-11-22T06:30:45.025Z,2.40
2022-11-22T06:31:46.490Z,2.40
2022-11-22T06:32:43.953Z,3.00
2022-11-22T06:33:43.969Z,2.30
2022-11-22T06:34:43.934Z,2.50
2022-11-22T06:35:43.911Z,2.60
2022-11-22T06:36:44.507Z,2.40
2022-11-22T06:37:43.908Z,3.00
2022-11-22T06:38:43.886Z,3.10
2022-11-22T06:39:44.017Z,2.80
2022-11-22T06:40:43.862Z,2.90
2022-11-22T06:41:44.508Z,3.20
2022-11-22T06:42:44.501Z,2.40
2022-11-22T06:43:48.602Z,2.30
2022-11-22T06:44:44.840Z,2.40
2022-11-22T06:45:50.492Z,2.20
2022-11-22T06:46:44.833Z,2.50
2022-11-22T06:47:44.485Z,2.10
2022-11-22T06:48:43.777Z,2.80
2022-11-22T06:49:43.772Z,2.60
2022-11-22T06:50:46.510Z,2.30
2022-11-22T06:51:44.030Z,2.50
2022-11-22T06:52:43.735Z,2.70
2022-11-22T06:53:48.240Z,2.60
2022-11-22T06:54:43.723Z,2.00
2022-11-22T06:55:53.420Z,2.60
2022-11-22T06:56:44.706Z,2.00
2022-11-22T06:57:50.513Z,2.30
2022-11-22T06:58:43.696Z,2.90
2022-11-22T06:59:43.652Z,2.70
2022-11-22T07:00:45.833Z,2.20
2022-11-22T07:01:43.741Z,2.40
2022-11-22T07:02:43.661Z,2.40
2022-11-22T07:03:44.494Z,2.70
2022-11-22T07:05:09.352Z,2.00
2022-11-22T07:05:44.610Z,2.10
2022-11-22T07:06:44.640Z,2.00
2022-11-22T07:07:44.567Z,2.10
2022-11-22T07:08:44.636Z,2.30
2022-11-22T07:09:46.505Z,2.20
2022-11-22T07:10:46.497Z,2.10
2022-11-22T07:11:46.503Z,2.20
2022-11-22T07:12:43.518Z,2.00
2022-11-22T07:13:46.021Z,2.00
2022-11-22T07:14:43.533Z,1.70
2022-11-22T07:15:43.479Z,2.10
2022-11-22T07:16:43.470Z,1.80
2022-11-22T07:17:43.514Z,2.10
2022-11-22T07:18:46.004Z,2.10
2022-11-22T07:19:43.535Z,2.50
2022-11-22T07:20:43.457Z,2.10
2022-11-22T07:21:43.444Z,2.30
2022-11-22T07:22:45.992Z,1.70
2022-11-22T07:23:43.420Z,2.00
2022-11-22T07:24:43.388Z,1.90
2022-11-22T07:25:43.383Z,1.90
2022-11-22T07:26:43.380Z,2.20
2022-11-22T07:27:43.354Z,1.80
2022-11-22T07:28:44.018Z,1.90
2022-11-22T07:29:43.376Z,2.60
2022-11-22T07:31:04.320Z,2.00
2022-11-22T07:31:43.301Z,2.10
2022-11-22T07:32:43.299Z,2.00
2022-11-22T07:33:43.279Z,2.50
2022-11-22T07:34:44.076Z,2.20
2022-11-22T07:35:43.323Z,2.30
2022-11-22T07:36:43.255Z,2.20
2022-11-22T07:37:44.003Z,2.10
2022-11-22T07:38:43.233Z,1.90
2022-11-22T07:39:45.994Z,2.60
2022-11-22T07:40:43.214Z,2.40
2022-11-22T07:41:43.218Z,2.00
2022-11-22T07:42:43.206Z,2.40
2022-11-22T07:43:43.179Z,2.20
2022-11-22T07:44:43.152Z,2.00
2022-11-22T07:45:43.161Z,1.70
2022-11-22T07:46:43.161Z,2.30
2022-11-22T07:47:43.161Z,2.20
2022-11-22T07:48:45.994Z,2.20
2022-11-22T07:49:44.167Z,2.70
2022-11-22T07:50:43.087Z,2.00
2022-11-22T07:51:43.093Z,1.90
2022-11-22T07:52:43.073Z,2.10
2022-11-22T07:53:43.083Z,2.10
2022-11-22T07:54:45.994Z,2.30
2022-11-22T07:55:43.044Z,2.50
2022-11-22T07:56:45.990Z,2.20
2022-11-22T07:57:45.041Z,2.10
2022-11-22T07:58:49.993Z,2.00
2022-11-22T07:59:43.030Z,2.20
2022-11-22T08:00:43.507Z,2.10
2022-11-22T08:01:43.647Z,2.30
2022-11-22T08:02:42.978Z,2.10
2022-11-22T08:03:42.993Z,2.50
2022-11-22T08:04:43.495Z,2.20
2022-11-22T08:05:43.507Z,2.30
2022-11-22T08:06:43.499Z,2.20
2022-11-22T08:07:42.983Z,2.40
2022-11-22T08:08:42.904Z,2.20
2022-11-22T08:09:43.040Z,1.90
2022-11-22T08:10:42.877Z,2.50
2022-11-22T08:11:42.875Z,2.40
2022-11-22T08:12:43.017Z,2.40
2022-11-22T08:13:45.505Z,2.50
2022-11-22T08:14:43.492Z,2.10
2022-11-22T08:15:43.847Z,2.10
2022-11-22T08:16:42.828Z,2.00
2022-11-22T08:17:43.625Z,2.70
2022-11-22T08:18:42.796Z,2.10
2022-11-22T08:19:42.783Z,1.80
2022-11-22T08:20:43.506Z,2.40
2022-11-22T08:21:43.504Z,2.30
2022-11-22T08:22:43.800Z,2.20
2022-11-22T08:23:42.738Z,2.20
2022-11-22T08:24:42.719Z,2.20
2022-11-22T08:25:42.725Z,2.10
2022-11-22T08:26:42.712Z,1.90
2022-11-22T08:27:42.719Z,2.00
2022-11-22T08:28:42.704Z,1.80
2022-11-22T08:29:45.504Z,1.90
2022-11-22T08:30:43.491Z,2.40
2022-11-22T08:31:42.650Z,2.10
2022-11-22T08:32:42.628Z,2.20
2022-11-22T08:33:43.759Z,2.00
2022-11-22T08:34:47.142Z,2.20
2022-11-22T08:35:42.617Z,1.70
2022-11-22T08:36:42.601Z,1.60
2022-11-22T08:37:42.592Z,2.00
2022-11-22T08:38:43.501Z,2.40
2022-11-22T08:39:42.565Z,1.80
2022-11-22T08:40:43.543Z,1.50
2022-11-22T08:41:43.503Z,1.70
2022-11-22T08:42:42.531Z,1.80
2022-11-22T08:43:42.532Z,2.10
2022-11-22T08:44:49.501Z,2.00
2022-11-22T08:45:42.524Z,2.40
2022-11-22T08:46:42.488Z,2.10
2022-11-22T08:47:42.474Z,1.60
2022-11-22T08:48:42.997Z,2.10
2022-11-22T08:49:45.139Z,2.20
2022-11-22T08:50:42.441Z,2.40
2022-11-22T08:51:43.541Z,1.70
2022-11-22T08:52:42.418Z,2.20
2022-11-22T08:53:42.433Z,2.40
2022-11-22T08:54:42.393Z,1.90
2022-11-22T08:55:42.406Z,3.00
2022-11-22T08:56:42.370Z,1.50
2022-11-22T08:57:49.001Z,2.30
2022-11-22T08:58:42.477Z,2.50
2022-11-22T08:59:42.446Z,1.80
2022-11-22T09:00:42.327Z,1.60
2022-11-22T09:01:42.438Z,2.00
2022-11-22T09:02:42.314Z,1.90
2022-11-22T09:03:42.315Z,2.00
2022-11-22T09:04:42.277Z,2.40
2022-11-22T09:08:49.208Z,1.90
2022-11-22T09:09:43.666Z,2.40
2022-11-22T09:10:42.223Z,2.00
2022-11-22T09:11:42.211Z,2.30
2022-11-22T09:12:45.491Z,1.90
2022-11-22T09:13:43.204Z,2.00
2022-11-22T09:14:42.175Z,2.00
2022-11-22T09:15:43.208Z,2.30
2022-11-22T09:16:42.146Z,1.80
2022-11-22T09:17:42.151Z,2.40
2022-11-22T09:18:42.151Z,1.80
2022-11-22T09:19:45.006Z,1.80
2022-11-22T09:20:42.137Z,2.20
2022-11-22T09:21:42.219Z,1.70
2022-11-22T09:22:42.086Z,1.70
2022-11-22T09:23:42.075Z,1.90
2022-11-22T09:24:42.060Z,1.90
2022-11-22T09:25:42.084Z,1.80
2022-11-22T09:26:42.052Z,1.50
2022-11-22T09:27:45.113Z,2.70
2022-11-22T09:28:42.030Z,2.00
2022-11-22T09:29:43.006Z,1.60
2022-11-22T09:30:42.025Z,1.80
2022-11-22T09:31:42.506Z,2.00
2022-11-22T09:32:41.989Z,2.10
2022-11-22T09:33:42.506Z,1.90
2022-11-22T09:34:41.964Z,1.80
2022-11-22T09:35:42.515Z,1.70
2022-11-22T09:36:41.942Z,1.70
2022-11-22T09:37:44.619Z,1.70
2022-11-22T09:38:41.905Z,2.70
2022-11-22T09:39:47.981Z,1.50
2022-11-22T09:40:42.888Z,1.80
2022-11-22T09:41:42.501Z,1.60
2022-11-22T09:42:42.925Z,1.60
2022-11-22T09:43:41.859Z,1.70
2022-11-22T09:44:42.025Z,1.80
2022-11-22T09:45:41.830Z,1.40
2022-11-22T09:46:44.490Z,1.60
2022-11-22T09:47:41.823Z,1.50
2022-11-22T09:48:42.499Z,1.80
2022-11-22T09:49:41.816Z,2.20
2022-11-22T09:50:41.772Z,2.00
2022-11-22T09:51:41.769Z,1.60
2022-11-22T09:52:41.789Z,1.90
2022-11-22T09:53:41.867Z,1.70
2022-11-22T09:54:41.726Z,1.70
2022-11-22T09:55:41.749Z,1.70
2022-11-22T09:56:41.715Z,1.70
2022-11-22T09:57:41.704Z,1.70
2022-11-22T09:58:42.484Z,1.50
2022-11-22T09:59:44.529Z,1.50
2022-11-22T10:00:50.701Z,1.60
2022-11-22T10:01:43.555Z,1.40
2022-11-22T10:02:59.577Z,1.30
2022-11-22T10:03:43.492Z,1.80
2022-11-22T10:04:42.496Z,1.40
2022-11-22T10:05:41.617Z,1.60
2022-11-22T10:06:42.019Z,1.50
2022-11-22T10:07:41.651Z,1.80
2022-11-22T10:08:41.580Z,1.10
2022-11-22T10:09:41.681Z,1.50
2022-11-22T10:10:41.555Z,1.10
2022-11-22T10:11:41.569Z,1.50
2022-11-22T10:12:41.555Z,1.30
2022-11-22T10:13:42.513Z,1.10
2022-11-22T10:15:02.520Z,1.90
2022-11-22T10:15:41.495Z,1.50
2022-11-22T10:16:41.996Z,1.30
2022-11-22T10:17:41.523Z,1.20
2022-11-22T10:18:41.998Z,1.40
2022-11-22T10:19:41.455Z,1.60
2022-11-22T10:20:45.841Z,1.20
2022-11-22T10:21:44.492Z,1.30
2022-11-22T10:22:41.414Z,1.30
2022-11-22T10:23:41.411Z,1.50
2022-11-22T10:24:41.417Z,1.50
2022-11-22T10:25:41.515Z,1.10
2022-11-22T10:26:41.378Z,1.40
2022-11-22T10:27:43.015Z,1.20
2022-11-22T10:28:41.351Z,1.10
2022-11-22T10:29:41.338Z,1.10
2022-11-22T10:30:41.352Z,1.10
2022-11-22T10:31:41.325Z,1.20
2022-11-22T10:32:41.332Z,1.20
2022-11-22T10:33:44.346Z,1.50
2022-11-22T10:34:41.281Z,1.10
2022-11-22T10:35:41.278Z,1.10
2022-11-22T10:36:41.295Z,1.40
2022-11-22T10:37:41.252Z,1.10
2022-11-22T10:38:41.261Z,1.40
2022-11-22T10:39:41.406Z,1.20
2022-11-22T10:40:41.221Z,1.20
2022-11-22T10:41:41.652Z,1.20
2022-11-22T10:42:41.193Z,1.30
2022-11-22T10:43:41.194Z,1.10
2022-11-22T10:44:41.199Z,1.60
2022-11-22T10:45:41.166Z,1.30
2022-11-22T10:46:51.090Z,1.10
2022-11-22T10:47:42.152Z,1.10
2022-11-22T10:48:41.127Z,1.10
2022-11-22T10:49:42.173Z,2.00
2022-11-22T10:50:41.122Z,1.50
2022-11-22T10:51:41.095Z,1.10
2022-11-22T10:52:41.109Z,1.40
2022-11-22T10:53:41.079Z,1.70
2022-11-22T10:54:41.074Z,1.60
2022-11-22T10:55:41.054Z,1.40
2022-11-22T10:56:41.205Z,1.50
2022-11-22T10:57:41.140Z,1.50
2022-11-22T10:58:41.056Z,1.30
2022-11-22T10:59:48.025Z,1.20
2022-11-22T11:00:41.062Z,1.20
2022-11-22T11:01:41.131Z,1.20
2022-11-22T11:02:41.499Z,1.50
2022-11-22T11:03:40.967Z,1.20
2022-11-22T11:04:41.490Z,1.30
2022-11-22T11:06:00.852Z,1.20
2022-11-22T11:07:11.491Z,1.30
2022-11-22T11:07:41.956Z,1.50
2022-11-22T11:09:12.148Z,1.10
2022-11-22T11:10:13.023Z,1.10
2022-11-22T11:10:41.964Z,1.30
2022-11-22T11:11:40.878Z,1.10
2022-11-22T11:12:40.882Z,1.10
2022-11-22T11:13:40.968Z,0.90
2022-11-22T11:14:40.847Z,1.30
2022-11-22T11:15:40.834Z,1.40
2022-11-22T11:16:43.493Z,1.30
2022-11-22T11:17:40.812Z,1.10
2022-11-22T11:18:41.023Z,1.20
2022-11-22T11:19:40.787Z,1.10
2022-11-22T11:20:41.507Z,1.40
2022-11-22T11:21:40.762Z,1.10
2022-11-22T11:23:42.034Z,1.30
2022-11-22T11:24:40.742Z,1.20
2022-11-22T11:25:40.907Z,1.30
2022-11-22T11:26:40.726Z,1.10
2022-11-22T11:27:41.500Z,1.40
2022-11-22T11:28:44.637Z,1.30
2022-11-22T11:29:40.682Z,1.10
2022-11-22T11:30:41.493Z,1.30
2022-11-22T11:31:40.655Z,1.20
2022-11-22T11:32:40.653Z,1.30
2022-11-22T11:33:40.648Z,1.50
2022-11-22T11:34:40.622Z,1.50
2022-11-22T11:35:40.616Z,1.80
2022-11-22T11:36:40.616Z,1.20
2022-11-22T11:37:40.605Z,1.50
2022-11-22T11:38:40.583Z,1.20
2022-11-22T11:39:44.600Z,1.20
2022-11-22T11:40:43.500Z,1.30
2022-11-22T11:41:43.518Z,1.20
2022-11-22T11:42:40.543Z,1.00
2022-11-22T11:43:40.544Z,1.10
2022-11-22T11:44:40.617Z,1.40
2022-11-22T11:45:40.503Z,1.40
2022-11-22T11:46:40.501Z,1.10
2022-11-22T11:47:40.493Z,1.10
2022-11-22T11:48:40.469Z,1.10
2022-11-22T11:49:41.026Z,1.10
2022-11-22T11:50:40.459Z,1.30
2022-11-22T11:51:40.472Z,1.20
2022-11-22T11:52:40.414Z,1.20
2022-11-22T11:53:40.406Z,1.30
2022-11-22T11:54:40.419Z,1.20
2022-11-22T11:55:40.388Z,1.10
2022-11-22T11:56:40.380Z,1.30
2022-11-22T11:57:40.529Z,1.00
2022-11-22T11:58:54.995Z,1.10
2022-11-22T11:59:40.346Z,1.00
2022-11-22T12:00:40.438Z,1.30
2022-11-22T12:01:55.223Z,1.40
2022-11-22T12:02:41.154Z,1.00
2022-11-22T12:03:40.572Z,1.40
2022-11-22T12:04:40.277Z,0.90
2022-11-22T12:05:40.277Z,1.20
2022-11-22T12:06:40.263Z,1.00
2022-11-22T12:07:40.323Z,1.10
2022-11-22T12:08:40.243Z,1.00
2022-11-22T12:09:40.532Z,0.80
2022-11-22T12:10:42.992Z,0.80
2022-11-22T12:11:40.214Z,1.10
2022-11-22T12:12:40.195Z,1.20
2022-11-22T12:14:04.621Z,1.40
2022-11-22T12:15:03.721Z,1.40
2022-11-22T12:15:41.166Z,1.10
2022-11-22T12:16:40.279Z,1.50
2022-11-22T12:17:40.144Z,1.10
2022-11-22T12:18:40.167Z,1.00
2022-11-22T12:19:40.123Z,1.10
2022-11-22T12:20:40.121Z,1.00
2022-11-22T12:21:40.124Z,1.00
2022-11-22T12:22:50.009Z,1.20
2022-11-22T12:23:44.417Z,0.80
2022-11-22T12:24:52.573Z,1.10
2022-11-22T12:25:41.198Z,1.10
2022-11-22T12:26:40.052Z,1.10
2022-11-22T12:27:40.041Z,1.10
2022-11-22T12:28:40.022Z,0.90
2022-11-22T12:29:43.016Z,1.10
2022-11-22T12:30:40.006Z,0.90
2022-11-22T12:31:39.989Z,0.80
2022-11-22T12:32:40.084Z,0.60
2022-11-22T12:33:39.987Z,1.40
2022-11-22T12:34:39.960Z,1.20
2022-11-22T12:35:40.530Z,0.70
2022-11-22T12:36:39.931Z,0.70
2022-11-22T12:37:39.950Z,1.10
2022-11-22T12:38:40.064Z,0.60
2022-11-22T12:39:39.902Z,0.80
2022-11-22T12:40:39.917Z,0.80
2022-11-22T12:41:39.883Z,1.00
2022-11-22T12:42:39.863Z,0.70
2022-11-22T12:43:42.506Z,1.00
2022-11-22T12:44:39.889Z,0.60
2022-11-22T12:45:39.830Z,0.70
2022-11-22T12:46:40.875Z,1.30
2022-11-22T12:47:39.813Z,0.70
2022-11-22T12:48:41.529Z,0.80
2022-11-22T12:49:39.788Z,0.80
2022-11-22T12:50:39.793Z,0.80
2022-11-22T12:51:39.764Z,0.80
2022-11-22T12:52:39.752Z,0.70
2022-11-22T12:53:40.035Z,0.60
2022-11-22T12:54:40.501Z,1.20
2022-11-22T12:55:39.722Z,1.00
2022-11-22T12:56:39.703Z,1.00
2022-11-22T12:57:39.711Z,1.00
2022-11-22T12:58:39.701Z,0.80
2022-11-22T12:59:39.707Z,0.70
2022-11-22T13:00:46.496Z,0.60
2022-11-22T13:01:39.772Z,0.80
2022-11-22T13:02:39.644Z,0.80
2022-11-22T13:03:40.512Z,0.80
2022-11-22T13:04:39.763Z,0.60
2022-11-22T13:05:39.637Z,0.80
2022-11-22T13:06:39.593Z,0.70
2022-11-22T13:07:39.679Z,0.60
2022-11-22T13:08:39.574Z,0.80
2022-11-22T13:09:39.591Z,0.80
2022-11-22T13:10:39.592Z,0.90
2022-11-22T13:11:39.544Z,0.60
2022-11-22T13:12:39.535Z,0.70
2022-11-22T13:13:39.523Z,0.60
2022-11-22T13:14:40.512Z,0.90
2022-11-22T13:15:39.521Z,0.70
2022-11-22T13:16:40.020Z,0.70
2022-11-22T13:17:39.513Z,0.70
2022-11-22T13:18:39.472Z,0.80
2022-11-22T13:19:39.484Z,0.60
2022-11-22T13:20:43.045Z,0.70
2022-11-22T13:21:39.439Z,0.90
2022-11-22T13:22:39.441Z,0.80